Time;durP1;ratioP1;P1;durP2;ratioP2;P2;SDS_P1;SDS_P2;PMS_P1;PMS_P2;Temp;Humidity;BMP_temperature;BMP_pressure;BME280_temperature;BME280_humidity;BME280_pressure;Samples;Min_cycle;Max_cycle;Signal;HPM_P1;HPM_P2
2022/07/24 00:00:21;;;;;;;8.68;6.90;;;19.10;99.90;;;;;;5011457;28;20424;-73
2022/07/24 00:02:46;;;;;;;8.27;6.65;;;18.70;99.90;;;;;;5012115;28;20032;-73
2022/07/24 00:05:12;;;;;;;7.63;6.60;;;18.80;99.90;;;;;;5011896;28;20168;-73
2022/07/24 00:07:37;;;;;;;8.80;6.90;;;18.60;99.90;;;;;;5019759;28;20049;-73
2022/07/24 00:10:04;;;;;;;7.43;6.38;;;18.60;99.90;;;;;;5016311;28;20030;-71
2022/07/24 00:12:31;;;;;;;8.88;6.65;;;18.70;99.90;;;;;;5011478;28;20037;-71
2022/07/24 00:14:56;;;;;;;7.15;6.47;;;18.60;99.90;;;;;;5011947;28;20041;-71
2022/07/24 00:17:22;;;;;;;7.68;6.38;;;18.50;99.90;;;;;;5012024;28;20030;-71
2022/07/24 00:19:47;;;;;;;8.77;6.78;;;18.50;99.90;;;;;;5011648;28;20068;-70
2022/07/24 00:22:14;;;;;;;9.15;6.43;;;18.60;99.90;;;;;;5011401;28;20026;-71
2022/07/24 00:24:40;;;;;;;10.50;6.85;;;18.50;99.90;;;;;;5011968;28;20025;-70
2022/07/24 00:27:05;;;;;;;6.93;6.22;;;18.40;99.90;;;;;;5031425;28;20021;-70
2022/07/24 00:29:31;;;;;;;7.07;6.35;;;18.70;99.90;;;;;;5031655;28;20365;-71
2022/07/24 00:31:57;;;;;;;6.82;6.13;;;18.70;99.90;;;;;;5031030;28;20033;-70
2022/07/24 00:34:23;;;;;;;7.47;6.07;;;18.80;99.90;;;;;;5030153;28;20037;-71
2022/07/24 00:36:48;;;;;;;9.07;6.65;;;18.80;99.90;;;;;;5031635;28;20068;-70
2022/07/24 00:39:14;;;;;;;7.30;6.50;;;18.90;99.90;;;;;;5031357;28;20056;-71
2022/07/24 00:41:39;;;;;;;7.18;6.47;;;19.20;99.90;;;;;;5030725;28;20113;-70
2022/07/24 00:44:08;;;;;;;8.48;6.78;;;19.00;99.90;;;;;;5031508;28;20380;-70
2022/07/24 00:46:36;;;;;;;7.47;6.53;;;19.10;99.90;;;;;;5029960;28;20071;-70
2022/07/24 00:49:04;;;;;;;7.22;6.53;;;19.10;99.90;;;;;;5030152;28;20438;-71
2022/07/24 00:51:30;;;;;;;8.68;7.40;;;18.50;99.90;;;;;;5010061;28;20435;-71
2022/07/24 00:53:56;;;;;;;7.10;6.40;;;17.90;99.90;;;;;;5011811;28;20030;-71
2022/07/24 00:56:21;;;;;;;8.25;7.32;;;17.90;99.90;;;;;;5010105;28;20030;-71
2022/07/24 00:58:48;;;;;;;7.78;6.97;;;18.00;99.90;;;;;;5011357;28;20037;-71
2022/07/24 01:01:15;;;;;;;8.18;6.68;;;18.00;99.90;;;;;;5010556;28;20057;-71
2022/07/24 01:03:41;;;;;;;7.07;6.47;;;18.30;99.90;;;;;;5011348;28;20030;-71
2022/07/24 01:06:06;;;;;;;8.43;6.47;;;17.90;99.90;;;;;;5012148;28;20318;-71
2022/07/24 01:08:34;;;;;;;7.55;6.20;;;18.10;99.90;;;;;;5014959;28;20496;-72
2022/07/24 01:11:01;;;;;;;8.60;7.05;;;18.20;99.90;;;;;;5014261;28;20116;-72
2022/07/24 01:13:28;;;;;;;9.07;6.95;;;17.80;99.90;;;;;;5014936;28;20022;-72
2022/07/24 01:15:54;;;;;;;9.35;7.25;;;17.40;99.90;;;;;;5014687;28;20044;-72
2022/07/24 01:18:19;;;;;;;7.50;6.65;;;17.10;99.90;;;;;;5014754;28;20030;-71
2022/07/24 01:20:49;;;;;;;161.00;105.70;;;17.40;99.90;;;;;;5014032;28;20061;-71
2022/07/24 01:23:14;;;;;;;8.60;6.90;;;17.50;99.90;;;;;;5014669;28;20025;-71
2022/07/24 01:25:41;;;;;;;8.80;6.85;;;17.60;99.90;;;;;;5014613;28;20048;-72
2022/07/24 01:28:07;;;;;;;8.27;6.95;;;17.50;99.90;;;;;;5014664;28;20034;-72
2022/07/24 01:30:33;;;;;;;8.10;6.72;;;17.00;99.90;;;;;;5020848;28;20035;-72
2022/07/24 01:32:59;;;;;;;8.90;6.75;;;16.70;99.90;;;;;;5033113;28;20550;-72
2022/07/24 01:35:25;;;;;;;8.35;7.20;;;17.10;99.90;;;;;;5034425;28;20037;-73
2022/07/24 01:37:52;;;;;;;9.32;6.78;;;17.20;99.90;;;;;;5034211;28;20037;-73
2022/07/24 01:40:17;;;;;;;9.80;6.75;;;17.20;99.90;;;;;;5033428;28;20034;-72
2022/07/24 01:42:43;;;;;;;7.10;6.40;;;17.20;99.90;;;;;;5032890;28;20449;-72
2022/07/24 01:45:09;;;;;;;9.10;7.03;;;17.30;99.90;;;;;;5025915;28;20056;-72
2022/07/24 01:47:34;;;;;;;7.90;6.70;;;17.10;99.90;;;;;;5014272;28;20125;-73
2022/07/24 01:50:00;;;;;;;10.00;7.22;;;17.30;99.90;;;;;;5014455;28;20068;-72
2022/07/24 01:52:26;;;;;;;10.70;6.47;;;17.20;99.90;;;;;;5015686;28;20516;-71
2022/07/24 01:54:52;;;;;;;9.05;6.70;;;17.30;99.90;;;;;;5032505;28;20053;-72
2022/07/24 01:57:18;;;;;;;9.75;6.70;;;17.30;99.90;;;;;;5021774;28;20036;-72
2022/07/24 01:59:43;;;;;;;8.38;6.72;;;17.40;99.90;;;;;;5013969;28;20022;-72
2022/07/24 02:02:09;;;;;;;542.78;59.10;;;17.30;99.90;;;;;;5013325;28;20057;-71
2022/07/24 02:04:34;;;;;;;8.98;6.40;;;17.20;99.90;;;;;;5013962;28;20030;-71
2022/07/24 02:07:00;;;;;;;7.63;6.40;;;17.50;99.90;;;;;;5013834;28;20030;-72
2022/07/24 02:09:26;;;;;;;8.98;6.30;;;17.60;99.90;;;;;;5013889;28;20026;-72
2022/07/24 02:11:52;;;;;;;9.00;6.38;;;17.30;99.90;;;;;;5012716;28;20040;-73
2022/07/24 02:14:18;;;;;;;8.25;6.30;;;17.40;99.90;;;;;;5022173;28;20025;-73
2022/07/24 02:16:45;;;;;;;9.35;6.75;;;17.20;99.90;;;;;;5033449;28;20480;-73
2022/07/24 02:19:11;;;;;;;8.73;6.75;;;17.20;99.90;;;;;;5032908;28;20083;-72
2022/07/24 02:21:36;;;;;;;7.28;6.20;;;17.00;99.90;;;;;;5032702;28;20025;-72
2022/07/24 02:24:02;;;;;;;9.13;6.35;;;17.10;99.90;;;;;;5031561;28;20105;-72
2022/07/24 02:26:28;;;;;;;7.18;5.63;;;16.90;99.90;;;;;;5013352;28;20021;-72
2022/07/24 02:28:53;;;;;;;9.70;6.43;;;17.10;99.90;;;;;;5013488;28;20033;-73
2022/07/24 02:31:19;;;;;;;7.68;6.18;;;17.50;99.90;;;;;;5012825;28;20112;-72
2022/07/24 02:33:44;;;;;;;9.10;6.88;;;17.30;99.90;;;;;;5013428;28;20388;-72
2022/07/24 02:36:10;;;;;;;9.90;7.22;;;17.00;99.90;;;;;;5013318;28;20659;-71
2022/07/24 02:38:36;;;;;;;9.70;7.45;;;16.60;99.90;;;;;;5013296;28;20030;-71
2022/07/24 02:41:01;;;;;;;8.05;6.40;;;16.50;99.90;;;;;;5012549;28;20037;-71
2022/07/24 02:43:27;;;;;;;7.43;5.57;;;16.60;99.90;;;;;;5013288;28;20032;-71
2022/07/24 02:45:52;;;;;;;11.07;6.10;;;16.90;99.90;;;;;;5013088;28;20029;-71
2022/07/24 02:48:19;;;;;;;8.50;6.68;;;16.90;99.90;;;;;;5012876;28;20034;-72
2022/07/24 02:50:44;;;;;;;10.50;6.93;;;16.90;99.90;;;;;;5012255;28;20026;-72
2022/07/24 02:53:10;;;;;;;7.45;6.10;;;16.60;99.90;;;;;;5012830;28;20486;-73
2022/07/24 02:55:35;;;;;;;7.93;7.13;;;16.50;99.90;;;;;;5012879;28;20037;-72
2022/07/24 02:58:01;;;;;;;8.77;6.72;;;16.30;99.90;;;;;;5012794;28;20065;-71
2022/07/24 03:00:26;;;;;;;7.35;6.07;;;16.70;99.90;;;;;;5012208;28;20384;-71
2022/07/24 03:02:52;;;;;;;8.88;7.13;;;16.90;99.90;;;;;;5012918;28;20037;-72
2022/07/24 03:05:18;;;;;;;10.20;7.18;;;16.40;99.90;;;;;;5012779;28;20026;-71
2022/07/24 03:07:44;;;;;;;7.85;7.05;;;16.40;99.90;;;;;;5012747;28;20366;-71
2022/07/24 03:10:11;;;;;;;8.75;6.88;;;16.00;99.90;;;;;;5012990;28;20075;-71
2022/07/24 03:12:37;;;;;;;8.27;6.53;;;16.10;99.90;;;;;;5012275;28;20400;-71
2022/07/24 03:15:03;;;;;;;9.25;7.30;;;16.20;99.90;;;;;;5027008;28;20480;-71
2022/07/24 03:17:28;;;;;;;8.02;7.22;;;16.30;99.90;;;;;;5032379;28;20101;-72
2022/07/24 03:19:54;;;;;;;9.32;6.82;;;16.40;99.90;;;;;;5032146;28;20034;-72
2022/07/24 03:22:20;;;;;;;9.00;6.82;;;16.30;99.90;;;;;;5031644;28;20107;-72
2022/07/24 03:24:45;;;;;;;8.70;6.93;;;16.30;99.90;;;;;;5032297;28;20507;-72
2022/07/24 03:27:11;;;;;;;8.40;7.07;;;16.40;99.90;;;;;;5032083;28;20029;-72
2022/07/24 03:29:36;;;;;;;9.02;7.10;;;16.40;99.90;;;;;;5016723;28;20021;-72
2022/07/24 03:32:02;;;;;;;8.13;7.15;;;16.30;99.90;;;;;;5023707;28;20396;-72
2022/07/24 03:34:28;;;;;;;10.13;7.00;;;16.20;99.90;;;;;;5012321;28;20022;-72
2022/07/24 03:36:53;;;;;;;7.38;6.68;;;16.20;99.90;;;;;;5019798;28;20472;-72
2022/07/24 03:39:19;;;;;;;9.00;7.07;;;16.60;99.90;;;;;;5031190;28;20067;-72
2022/07/24 03:41:44;;;;;;;8.93;7.10;;;16.50;99.90;;;;;;5011465;28;20727;-72
2022/07/24 03:44:10;;;;;;;10.20;6.07;;;16.60;99.90;;;;;;5012170;28;20022;-72
2022/07/24 03:46:36;;;;;;;8.73;6.55;;;16.70;99.90;;;;;;5012176;28;20026;-72
2022/07/24 03:49:02;;;;;;;8.95;6.63;;;16.80;99.90;;;;;;5024665;28;20034;-72
2022/07/24 03:51:28;;;;;;;11.45;6.50;;;16.70;99.90;;;;;;5011561;28;20030;-72
2022/07/24 03:53:54;;;;;;;9.82;7.00;;;16.70;99.90;;;;;;5012068;28;20025;-72
2022/07/24 03:56:19;;;;;;;9.70;6.38;;;16.80;99.90;;;;;;5012007;28;20034;-72
2022/07/24 03:58:45;;;;;;;9.75;7.03;;;16.80;99.90;;;;;;5012033;28;20037;-72
2022/07/24 04:01:11;;;;;;;8.38;6.40;;;16.90;99.90;;;;;;5011371;28;20488;-72
2022/07/24 04:03:36;;;;;;;7.57;6.75;;;16.90;99.90;;;;;;5011976;28;20018;-73
2022/07/24 04:06:03;;;;;;;8.68;7.03;;;16.50;99.90;;;;;;5018931;28;20021;-73
2022/07/24 04:08:29;;;;;;;8.10;6.85;;;16.50;99.90;;;;;;5017816;28;20558;-73
2022/07/24 04:10:58;;;;;;;1999.90;999.90;;;16.30;99.90;;;;;;5017225;28;20041;-73
2022/07/24 04:13:28;;;;;;;194.02;150.73;;;16.40;99.90;;;;;;5017294;28;20448;-72
2022/07/24 04:15:55;;;;;;;111.63;102.78;;;16.60;99.90;;;;;;5011789;28;20050;-72
2022/07/24 04:18:21;;;;;;;594.08;335.58;;;16.50;99.90;;;;;;5011820;28;20041;-71
2022/07/24 04:20:47;;;;;;;722.50;391.58;;;16.50;99.90;;;;;;5011037;28;20022;-72
2022/07/24 04:23:13;;;;;;;1999.90;999.90;;;16.70;99.90;;;;;;5011702;28;20026;-72
2022/07/24 04:25:38;;;;;;;1999.90;999.90;;;16.70;99.90;;;;;;5011701;28;20507;-73
2022/07/24 04:28:04;;;;;;;1999.90;999.90;;;17.10;99.90;;;;;;5026682;28;20021;-73
2022/07/24 04:30:30;;;;;;;1999.90;999.90;;;17.20;99.90;;;;;;5030806;28;20435;-72
2022/07/24 04:32:56;;;;;;;1999.90;999.90;;;16.60;99.90;;;;;;5015269;28;20038;-73
2022/07/24 04:35:22;;;;;;;1999.90;999.90;;;16.20;99.90;;;;;;5011615;28;20025;-73
2022/07/24 04:37:48;;;;;;;1999.90;999.90;;;16.40;99.90;;;;;;5010234;28;20029;-73
2022/07/24 04:40:14;;;;;;;1999.90;999.90;;;16.60;99.90;;;;;;5010965;28;20057;-71
2022/07/24 04:42:40;;;;;;;1999.90;999.90;;;17.00;99.90;;;;;;5014684;28;20026;-72
2022/07/24 04:45:08;;;;;;;1999.90;999.90;;;17.20;99.90;;;;;;5015355;28;20481;-72
2022/07/24 04:47:33;;;;;;;1999.90;999.90;;;17.30;99.90;;;;;;5015291;28;20157;-71
2022/07/24 04:49:59;;;;;;;1999.90;999.90;;;17.20;99.90;;;;;;5015187;28;20050;-71
2022/07/24 04:52:25;;;;;;;1999.90;999.90;;;17.20;99.90;;;;;;5016744;28;20033;-72
2022/07/24 04:54:50;;;;;;;1999.90;999.90;;;17.10;99.90;;;;;;5034940;28;20037;-72
2022/07/24 04:57:16;;;;;;;1999.90;999.90;;;17.20;99.90;;;;;;5023098;28;20373;-71
2022/07/24 04:59:42;;;;;;;1999.90;999.90;;;17.10;99.90;;;;;;5015097;28;20052;-71
2022/07/24 05:02:07;;;;;;;1999.90;999.90;;;17.10;99.90;;;;;;5014402;28;20053;-71
2022/07/24 05:04:34;;;;;;;1999.90;999.90;;;17.10;99.90;;;;;;5015120;28;20121;-71
2022/07/24 05:07:00;;;;;;;1999.90;999.90;;;17.60;99.90;;;;;;5015060;28;20022;-71
2022/07/24 05:09:27;;;;;;;1999.90;999.90;;;17.70;99.90;;;;;;5014930;28;20759;-71
2022/07/24 05:11:52;;;;;;;1999.90;999.90;;;17.70;99.90;;;;;;5014239;28;20037;-71
2022/07/24 05:14:18;;;;;;;1999.90;999.90;;;17.70;99.90;;;;;;5014945;28;20025;-72
2022/07/24 05:16:43;;;;;;;1999.90;999.90;;;17.80;99.90;;;;;;5014778;28;20496;-73
2022/07/24 05:19:09;;;;;;;1999.90;999.90;;;18.00;99.90;;;;;;5014846;28;20029;-71
2022/07/24 05:21:35;;;;;;;1999.90;999.90;;;18.10;99.90;;;;;;5014067;28;20108;-72
2022/07/24 05:24:01;;;;;;;1999.90;999.90;;;18.20;99.90;;;;;;5014696;28;20022;-71
2022/07/24 05:26:28;;;;;;;1999.90;999.90;;;18.30;99.90;;;;;;5014614;28;20071;-73
2022/07/24 05:28:54;;;;;;;1999.90;999.90;;;18.00;99.90;;;;;;5014638;28;20026;-73
2022/07/24 05:31:20;;;;;;;1999.90;999.90;;;18.20;99.90;;;;;;5016112;28;20388;-73
2022/07/24 05:33:45;;;;;;;1142.05;999.90;;;18.30;99.90;;;;;;5025716;28;20485;-73
2022/07/24 05:36:11;;;;;;;1999.90;999.90;;;18.60;99.90;;;;;;5008810;28;20038;-72
2022/07/24 05:38:37;;;;;;;1999.90;999.90;;;18.80;99.90;;;;;;5013236;28;20025;-72
2022/07/24 05:41:02;;;;;;;1999.90;999.90;;;18.90;99.90;;;;;;5013696;28;20084;-71
2022/07/24 05:43:28;;;;;;;1999.90;999.90;;;19.20;99.90;;;;;;5009887;28;20022;-72
2022/07/24 05:45:53;;;;;;;1999.90;999.90;;;19.10;99.90;;;;;;5009667;28;20023;-72
2022/07/24 05:48:19;;;;;;;1999.90;999.90;;;19.20;99.90;;;;;;5022714;28;20044;-72
2022/07/24 05:50:44;;;;;;;835.50;800.97;;;19.10;99.90;;;;;;5018340;28;20061;-72
2022/07/24 05:53:11;;;;;;;426.80;412.38;;;19.20;99.90;;;;;;5032303;28;20092;-72
2022/07/24 05:55:37;;;;;;;1125.45;999.90;;;19.30;99.90;;;;;;5018598;28;20054;-72
2022/07/24 05:58:03;;;;;;;1296.90;999.90;;;19.30;99.90;;;;;;5013973;28;20030;-72
2022/07/24 06:00:29;;;;;;;1999.90;999.90;;;19.50;99.90;;;;;;5013375;28;20030;-72
2022/07/24 06:02:55;;;;;;;1999.90;999.90;;;19.60;99.90;;;;;;5014137;28;20399;-72
2022/07/24 06:05:20;;;;;;;1999.90;999.90;;;19.90;99.90;;;;;;5013619;28;20084;-72
2022/07/24 06:07:46;;;;;;;886.38;840.05;;;20.10;99.90;;;;;;5013901;28;20172;-72
2022/07/24 06:10:12;;;;;;;904.35;860.78;;;20.30;99.90;;;;;;5013557;28;20030;-72
2022/07/24 06:12:37;;;;;;;1110.50;576.70;;;20.40;99.90;;;;;;5010415;28;20076;-73
2022/07/24 06:15:03;;;;;;;37.47;19.75;;;20.40;99.90;;;;;;5018988;28;20038;-72
2022/07/24 06:17:29;;;;;;;22.73;21.02;;;20.60;99.90;;;;;;5013627;28;20087;-72
2022/07/24 06:19:54;;;;;;;1999.90;999.90;;;20.70;99.90;;;;;;5013282;28;20440;-73
2022/07/24 06:22:20;;;;;;;1999.90;999.90;;;20.90;99.90;;;;;;5012837;28;20022;-72
2022/07/24 06:24:46;;;;;;;1999.90;999.90;;;20.90;99.90;;;;;;5013526;28;20033;-72
2022/07/24 06:27:11;;;;;;;1999.90;999.90;;;20.90;99.90;;;;;;5010580;28;20045;-72
2022/07/24 06:29:37;;;;;;;1999.90;999.90;;;21.10;99.90;;;;;;5013362;28;20093;-72
2022/07/24 06:32:02;;;;;;;1999.90;999.90;;;21.10;99.90;;;;;;5012577;28;20404;-71
2022/07/24 06:34:28;;;;;;;1999.90;999.90;;;21.10;99.90;;;;;;5013406;28;20156;-72
2022/07/24 06:36:54;;;;;;;1999.90;999.90;;;21.10;99.90;;;;;;5013200;28;20740;-72
2022/07/24 06:39:19;;;;;;;1999.90;999.90;;;21.00;99.90;;;;;;5013215;28;20030;-72
2022/07/24 06:41:45;;;;;;;1999.90;999.90;;;21.30;99.90;;;;;;5012398;28;20370;-72
2022/07/24 06:44:10;;;;;;;1999.90;999.90;;;21.30;99.90;;;;;;5013632;28;20030;-72
2022/07/24 06:46:36;;;;;;;1999.90;999.90;;;21.10;99.90;;;;;;5012755;28;20050;-72
2022/07/24 06:49:02;;;;;;;1999.90;999.90;;;21.30;99.90;;;;;;5012936;28;20030;-72
2022/07/24 06:51:27;;;;;;;1999.90;999.90;;;21.40;99.90;;;;;;5011183;28;20041;-73
2022/07/24 06:53:53;;;;;;;1999.90;999.90;;;21.50;99.90;;;;;;5009258;28;20513;-72
2022/07/24 06:56:18;;;;;;;1999.90;999.90;;;21.80;99.90;;;;;;5012862;28;20109;-73
2022/07/24 06:58:45;;;;;;;1999.90;999.90;;;21.80;99.90;;;;;;5013013;28;20069;-72
2022/07/24 07:01:11;;;;;;;1999.90;999.90;;;22.00;99.90;;;;;;5012342;28;20030;-72
2022/07/24 07:03:37;;;;;;;1999.90;999.90;;;21.90;99.90;;;;;;5012695;28;20033;-72
2022/07/24 07:06:03;;;;;;;1999.90;999.90;;;21.90;99.90;;;;;;5008243;28;20026;-72
2022/07/24 07:08:28;;;;;;;1999.90;999.90;;;22.00;99.90;;;;;;5006958;28;20389;-72
2022/07/24 07:10:54;;;;;;;1999.90;999.90;;;22.20;99.90;;;;;;5012213;28;20033;-72
2022/07/24 07:13:19;;;;;;;1999.90;999.90;;;22.40;99.90;;;;;;5012772;28;20030;-72
2022/07/24 07:15:45;;;;;;;1999.90;999.90;;;22.50;99.90;;;;;;5012629;28;20037;-72
2022/07/24 07:18:10;;;;;;;1999.90;999.90;;;22.60;99.90;;;;;;5012506;28;20576;-72
2022/07/24 07:20:36;;;;;;;1999.90;999.90;;;22.70;99.90;;;;;;5011751;28;20037;-72
2022/07/24 07:23:02;;;;;;;1999.90;999.90;;;22.80;99.90;;;;;;5012607;28;20028;-73
2022/07/24 07:25:27;;;;;;;1999.90;999.90;;;23.00;99.90;;;;;;5012421;28;20104;-73
2022/07/24 07:27:53;;;;;;;1999.90;999.90;;;23.10;99.90;;;;;;5012422;28;20532;-72
2022/07/24 07:30:19;;;;;;;1999.90;999.90;;;23.30;99.90;;;;;;5011872;28;20038;-72
2022/07/24 07:32:44;;;;;;;1999.90;999.90;;;23.20;99.90;;;;;;5012413;28;20041;-72
2022/07/24 07:35:10;;;;;;;1999.90;999.90;;;23.50;99.90;;;;;;5012155;28;20101;-72
2022/07/24 07:37:36;;;;;;;1999.90;999.90;;;23.30;99.90;;;;;;5012426;28;20032;-72
2022/07/24 07:40:02;;;;;;;1999.90;999.90;;;23.30;99.90;;;;;;5012193;28;20061;-72
2022/07/24 07:42:27;;;;;;;1999.90;999.90;;;23.40;99.90;;;;;;5011611;28;20026;-72
2022/07/24 07:44:53;;;;;;;1999.90;999.90;;;23.70;99.90;;;;;;5012156;28;20664;-73
2022/07/24 07:47:19;;;;;;;1999.90;999.90;;;23.70;99.90;;;;;;5012100;28;20033;-73
2022/07/24 07:49:44;;;;;;;1999.90;999.90;;;23.90;99.90;;;;;;5011984;28;20033;-71
2022/07/24 07:52:10;;;;;;;1999.90;999.90;;;24.00;99.90;;;;;;5011159;28;20034;-72
2022/07/24 07:54:35;;;;;;;1999.90;999.90;;;23.90;99.90;;;;;;5012218;28;20053;-72
2022/07/24 07:57:01;;;;;;;1999.90;999.90;;;24.00;99.90;;;;;;5011924;28;20037;-73
2022/07/24 07:59:26;;;;;;;1999.90;999.90;;;24.20;99.90;;;;;;5011976;28;20022;-72
2022/07/24 08:01:52;;;;;;;1999.90;999.90;;;24.20;99.90;;;;;;5011249;28;20040;-73
2022/07/24 08:04:18;;;;;;;1999.90;999.90;;;24.40;99.90;;;;;;5011906;28;20060;-72
2022/07/24 08:06:43;;;;;;;1999.90;999.90;;;24.50;99.90;;;;;;5011878;28;20503;-73
2022/07/24 08:09:09;;;;;;;1999.90;999.90;;;24.50;99.90;;;;;;5017977;28;20104;-73
2022/07/24 08:11:34;;;;;;;1999.90;999.90;;;24.60;99.90;;;;;;5030943;28;20041;-72
2022/07/24 08:14:00;;;;;;;1999.90;999.90;;;24.60;99.90;;;;;;5031524;28;20033;-72
2022/07/24 08:16:26;;;;;;;1999.90;999.90;;;24.70;99.90;;;;;;5030822;28;20025;-72
2022/07/24 08:18:51;;;;;;;1999.90;999.90;;;24.80;99.90;;;;;;5026305;28;20025;-72
2022/07/24 08:21:18;;;;;;;1999.90;999.90;;;24.90;99.90;;;;;;5030702;28;20018;-72
2022/07/24 08:23:44;;;;;;;1999.90;999.90;;;25.30;99.90;;;;;;5031434;28;20105;-72
2022/07/24 08:26:11;;;;;;;10.10;9.10;;;25.50;99.90;;;;;;5031460;28;20507;-73
2022/07/24 08:28:37;;;;;;;11.98;10.88;;;25.60;99.90;;;;;;5031405;28;20037;-72
2022/07/24 08:31:03;;;;;;;11.90;10.80;;;25.20;99.90;;;;;;5030617;28;20041;-72
2022/07/24 08:33:28;;;;;;;11.38;10.20;;;25.10;99.90;;;;;;5005820;28;20018;-72
2022/07/24 08:35:54;;;;;;;11.43;10.35;;;25.20;99.90;;;;;;5010906;28;20378;-72
2022/07/24 08:38:20;;;;;;;10.70;9.57;;;25.10;99.90;;;;;;5013362;28;20038;-72
2022/07/24 08:40:45;;;;;;;11.20;9.07;;;25.30;99.90;;;;;;5011125;28;20025;-73
2022/07/24 08:43:11;;;;;;;10.70;8.52;;;25.40;99.90;;;;;;5011444;28;20050;-73
2022/07/24 08:45:39;;;;;;;9.98;8.23;;;25.50;99.90;;;;;;5010097;28;20022;-72
2022/07/24 08:48:09;;;;;;;9.70;8.57;;;25.50;99.90;;;;;;5011308;28;20117;-72
2022/07/24 08:50:37;;;;;;;9.82;8.82;;;25.70;99.90;;;;;;5010677;28;20101;-73
2022/07/24 08:53:04;;;;;;;11.40;9.05;;;25.70;99.90;;;;;;5011527;28;20018;-72
2022/07/24 08:55:30;;;;;;;10.60;9.50;;;25.80;99.90;;;;;;5013499;28;20493;-72
2022/07/24 08:57:57;;;;;;;9.50;8.57;;;25.90;99.90;;;;;;5019758;28;20508;-72
2022/07/24 09:00:24;;;;;;;9.77;8.77;;;25.90;99.90;;;;;;5010321;28;20018;-72
2022/07/24 09:02:49;;;;;;;9.13;8.13;;;26.20;99.90;;;;;;5010280;28;20670;-73
2022/07/24 09:05:15;;;;;;;8.80;8.00;;;26.40;99.90;;;;;;5011100;28;20018;-73
2022/07/24 09:07:41;;;;;;;9.52;8.52;;;26.50;99.90;;;;;;5011260;28;20033;-72
2022/07/24 09:10:12;;;;;;;9.88;7.80;;;26.50;99.90;;;;;;5011225;28;20392;-73
2022/07/24 09:12:42;;;;;;;8.82;8.07;;;26.60;99.90;;;;;;5022893;28;20060;-73
2022/07/24 09:15:12;;;;;;;9.30;8.40;;;26.70;99.90;;;;;;5010970;28;20029;-72
2022/07/24 09:17:48;;;;;;;9.65;8.20;;;26.90;99.90;;;;;;5011247;28;20428;-73
2022/07/24 09:20:13;;;;;;;9.70;8.70;;;26.80;99.90;;;;;;5006260;28;20093;-73
2022/07/24 09:22:41;;;;;;;9.15;8.25;;;26.60;99.90;;;;;;5011579;28;20025;-73
2022/07/24 09:25:20;;;;;;;10.18;9.07;;;26.40;99.90;;;;;;5026890;28;20033;-73
2022/07/24 09:27:46;;;;;;;8.98;8.15;;;26.60;99.90;;;;;;5011394;28;20025;-73
2022/07/24 09:30:41;;;;;;;9.77;8.88;;;26.70;99.90;;;;;;5014130;28;20025;-72
2022/07/24 09:33:18;;;;;;;8.80;8.00;;;27.00;99.90;;;;;;5014137;28;20089;-73
2022/07/24 09:35:53;;;;;;;10.32;8.90;;;26.80;99.90;;;;;;5014540;28;20025;-72
2022/07/24 09:38:21;;;;;;;4.30;3.60;;;27.10;99.90;;;;;;5013680;28;20499;-73
2022/07/24 09:40:51;;;;;;;6.18;4.22;;;26.90;99.90;;;;;;5013211;28;20033;-72
2022/07/24 09:43:38;;;;;;;5.72;3.97;;;27.10;99.90;;;;;;5013015;28;20104;-72
2022/07/24 09:46:05;;;;;;;8.05;4.18;;;27.30;99.90;;;;;;5012871;28;20076;-72
2022/07/24 09:48:35;;;;;;;7.43;4.38;;;27.30;99.90;;;;;;5014196;28;20022;-72
2022/07/24 09:51:04;;;;;;;6.72;4.38;;;27.40;99.90;;;;;;5000681;28;20053;-73
2022/07/24 09:53:32;;;;;;;4.78;4.00;;;27.00;99.90;;;;;;5012862;28;20029;-72
2022/07/24 09:56:19;;;;;;;6.13;4.15;;;26.60;99.90;;;;;;5013988;28;20022;-72
2022/07/24 09:58:45;;;;;;;9.98;7.47;;;26.60;99.90;;;;;;5014858;28;20038;-72
2022/07/24 10:01:12;;;;;;;10.10;7.18;;;26.90;99.90;;;;;;5033222;28;20032;-72
2022/07/24 10:03:39;;;;;;;9.18;8.27;;;26.90;99.90;;;;;;5033614;28;20033;-73
2022/07/24 10:06:07;;;;;;;8.93;7.50;;;26.90;99.90;;;;;;5025410;28;20018;-73
2022/07/24 10:08:34;;;;;;;8.45;5.93;;;27.50;99.90;;;;;;5013958;28;20033;-72
2022/07/24 10:11:01;;;;;;;10.30;7.65;;;28.20;99.90;;;;;;5022163;28;20482;-72
2022/07/24 10:13:30;;;;;;;8.98;5.60;;;28.20;99.90;;;;;;5033405;28;20514;-73
2022/07/24 10:16:13;;;;;;;9.48;7.93;;;28.30;99.90;;;;;;5033496;28;20041;-72
2022/07/24 10:18:56;;;;;;;9.50;8.38;;;28.50;99.90;;;;;;5015539;28;20030;-73
2022/07/24 10:21:25;;;;;;;12.45;8.50;;;28.60;99.90;;;;;;5012991;28;20041;-73
2022/07/24 10:24:12;;;;;;;8.98;8.07;;;28.30;99.90;;;;;;5013722;28;20060;-73
2022/07/24 10:26:47;;;;;;;10.63;8.52;;;28.00;99.90;;;;;;5013279;28;20022;-72
2022/07/24 10:29:14;;;;;;;9.95;8.32;;;27.80;99.90;;;;;;5013614;28;20049;-73
2022/07/24 10:31:50;;;;;;;9.38;8.35;;;27.60;99.90;;;;;;5012852;28;20026;-73
2022/07/24 10:34:38;;;;;;;9.68;8.32;;;27.50;99.90;;;;;;5013446;28;20084;-72
2022/07/24 10:37:11;;;;;;;9.50;8.50;;;28.00;99.90;;;;;;5013436;28;20033;-72
2022/07/24 10:39:55;;;;;;;9.23;8.25;;;27.90;99.90;;;;;;5012845;28;20044;-73
2022/07/24 10:42:21;;;;;;;8.70;6.10;;;27.70;99.90;;;;;;5012634;28;20032;-73
2022/07/24 10:45:15;;;;;;;7.45;5.78;;;27.40;99.90;;;;;;5013177;28;20104;-72
2022/07/24 10:47:41;;;;;;;10.23;9.20;;;27.30;99.90;;;;;;5012965;28;20030;-73
2022/07/24 10:50:06;;;;;;;9.02;7.97;;;28.00;99.90;;;;;;5012990;28;20075;-73
2022/07/24 10:52:33;;;;;;;9.07;6.20;;;27.90;99.90;;;;;;5011221;28;20036;-72
2022/07/24 10:55:22;;;;;;;10.52;6.88;;;27.70;99.90;;;;;;5013024;28;20097;-73
2022/07/24 10:57:52;;;;;;;8.57;7.20;;;27.50;99.90;;;;;;5019054;28;20033;-73
2022/07/24 11:00:25;;;;;;;9.15;7.63;;;27.50;99.90;;;;;;5032006;28;20396;-73
2022/07/24 11:03:00;;;;;;;10.20;8.23;;;27.40;99.90;;;;;;5032573;28;20482;-72
2022/07/24 11:05:38;;;;;;;8.70;5.95;;;27.30;99.90;;;;;;5032592;28;20483;-73
2022/07/24 11:08:14;;;;;;;7.47;5.88;;;27.30;99.90;;;;;;5022385;28;20029;-73
2022/07/24 11:10:51;;;;;;;1999.90;999.90;;;27.60;99.90;;;;;;5012121;28;20037;-73
2022/07/24 11:13:32;;;;;;;1999.90;999.90;;;28.60;99.90;;;;;;5012903;28;20651;-73
2022/07/24 11:16:16;;;;;;;11.10;4.35;;;29.10;99.90;;;;;;5012571;28;20492;-74
2022/07/24 11:18:47;;;;;;;4.90;4.35;;;29.10;99.40;;;;;;5012551;28;20515;-73
2022/07/24 11:21:30;;;;;;;5.00;4.50;;;29.40;99.30;;;;;;5012003;28;20025;-72
2022/07/24 11:24:21;;;;;;;9.07;5.78;;;28.80;99.60;;;;;;5012612;28;20072;-73
2022/07/24 11:26:53;;;;;;;9.80;4.82;;;28.10;99.90;;;;;;5012354;28;20041;-72
2022/07/24 11:29:32;;;;;;;6.75;4.20;;;28.80;99.90;;;;;;5011875;28;20026;-73
2022/07/24 11:32:01;;;;;;;6.72;4.97;;;29.70;99.60;;;;;;5011785;28;20022;-72
2022/07/24 11:34:28;;;;;;;7.60;5.55;;;30.20;98.90;;;;;;5012452;28;20025;-72
2022/07/24 11:36:55;;;;;;;7.07;4.70;;;30.30;98.20;;;;;;5012270;28;20531;-72
2022/07/24 11:39:28;;;;;;;9.50;5.22;;;30.50;98.30;;;;;;5012367;28;20488;-73
2022/07/24 11:41:58;;;;;;;8.93;5.50;;;30.70;97.80;;;;;;5011602;28;20026;-72
2022/07/24 11:44:35;;;;;;;9.52;6.32;;;30.90;97.60;;;;;;5012248;28;20022;-73
2022/07/24 11:47:13;;;;;;;7.07;6.03;;;29.90;98.00;;;;;;5011923;28;20488;-73
2022/07/24 11:49:45;;;;;;;8.27;6.35;;;30.20;97.80;;;;;;5012089;28;20017;-73
2022/07/24 11:52:38;;;;;;;7.88;6.97;;;30.60;97.40;;;;;;5010751;28;20076;-73
2022/07/24 11:55:12;;;;;;;8.10;7.20;;;30.70;97.50;;;;;;5010995;28;20381;-73
2022/07/24 11:57:40;;;;;;;8.02;6.28;;;29.80;97.50;;;;;;5010665;28;20029;-72
2022/07/24 12:00:10;;;;;;;8.48;6.65;;;29.10;97.70;;;;;;5011918;28;20117;-73
2022/07/24 12:02:36;;;;;;;8.00;6.85;;;28.80;98.10;;;;;;5007090;28;20575;-73
2022/07/24 12:05:03;;;;;;;8.80;5.97;;;28.50;97.70;;;;;;5004144;28;20022;-73
2022/07/24 12:07:29;;;;;;;10.02;7.63;;;28.40;97.60;;;;;;5007418;28;20540;-73
2022/07/24 12:09:54;;;;;;;8.88;7.07;;;28.50;98.00;;;;;;5004182;28;20473;-72
2022/07/24 12:12:22;;;;;;;9.23;7.35;;;28.70;97.90;;;;;;5009880;28;20022;-72
2022/07/24 12:14:48;;;;;;;8.75;7.90;;;29.40;97.80;;;;;;5011870;28;20026;-72
2022/07/24 12:17:14;;;;;;;9.30;7.13;;;30.40;97.00;;;;;;5007152;28;20026;-73
2022/07/24 12:19:39;;;;;;;10.18;7.20;;;31.10;96.50;;;;;;5003829;28;20507;-73
2022/07/24 12:22:05;;;;;;;8.50;7.00;;;31.90;96.40;;;;;;5016197;28;20062;-73
2022/07/24 12:24:31;;;;;;;7.30;6.15;;;31.90;95.20;;;;;;5031494;28;20523;-73
2022/07/24 12:26:58;;;;;;;7.90;7.10;;;31.60;94.50;;;;;;5031284;28;20017;-72
2022/07/24 12:29:26;;;;;;;9.40;7.15;;;30.50;95.30;;;;;;5031516;28;20021;-72